Time;durP1;ratioP1;P1;durP2;ratioP2;P2;SDS_P1;SDS_P2;PMS_P1;PMS_P2;Temp;Humidity;BMP_temperature;BMP_pressure;BME280_temperature;BME280_humidity;BME280_pressure;Samples;Min_cycle;Max_cycle;Signal;HPM_P1;HPM_P2
2023/09/21 00:02:28;;;;;;;11.90;7.00;;;;;;;14.96;88.49;100425.83;105918;1262;101342;-90
2023/09/21 00:05:19;;;;;;;12.90;7.20;;;;;;;14.94;88.47;100425.26;105874;1270;99464;-88
2023/09/21 00:08:06;;;;;;;11.60;6.50;;;;;;;14.92;88.44;100423.41;105892;1268;97971;-89
2023/09/21 00:10:54;;;;;;;12.40;7.30;;;;;;;14.88;88.56;100422.98;105739;1270;97965;-85
2023/09/21 00:13:39;;;;;;;8.80;5.30;;;;;;;14.85;88.58;100418.73;105834;1264;98410;-87
2023/09/21 00:16:27;;;;;;;10.00;6.60;;;;;;;14.83;88.51;100417.49;105869;1267;101485;-87
2023/09/21 00:19:13;;;;;;;10.70;5.90;;;;;;;14.80;88.66;100414.62;105825;1270;99288;-87
2023/09/21 00:21:58;;;;;;;8.30;6.10;;;;;;;14.79;88.89;100409.28;105875;1264;98376;-86
2023/09/21 00:24:44;;;;;;;9.90;6.10;;;;;;;14.78;89.11;100406.88;105751;1263;97869;-87
2023/09/21 00:27:30;;;;;;;9.10;6.30;;;;;;;14.76;89.30;100403.94;105808;1263;98512;-87
2023/09/21 00:30:16;;;;;;;13.50;5.80;;;;;;;14.75;89.42;100403.11;105985;1264;111614;-88
2023/09/21 00:33:02;;;;;;;13.00;7.90;;;;;;;14.73;89.66;100397.45;105845;1271;100913;-86
2023/09/21 00:35:48;;;;;;;12.30;7.40;;;;;;;14.70;89.49;100394.73;105677;1268;97984;-88
2023/09/21 00:38:34;;;;;;;12.30;6.80;;;;;;;14.63;88.92;100394.58;105925;1263;97855;-88
2023/09/21 00:41:20;;;;;;;11.60;6.90;;;;;;;14.57;89.00;100393.66;105908;1264;97786;-88
2023/09/21 00:44:08;;;;;;;12.70;6.70;;;;;;;14.53;89.11;100394.44;105928;1271;102135;-87
2023/09/21 00:46:54;;;;;;;13.20;7.60;;;;;;;14.50;89.08;100395.20;105834;1270;100071;-89
2023/09/21 00:49:41;;;;;;;10.70;7.10;;;;;;;14.48;89.24;100396.21;105855;1263;97970;-88
2023/09/21 00:52:29;;;;;;;12.60;6.50;;;;;;;14.48;89.50;100396.54;105838;1264;97858;-88
2023/09/21 00:55:28;;;;;;;6.10;5.20;;;;;;;14.51;89.94;100395.83;105927;1267;98133;-88
2023/09/21 00:58:16;;;;;;;10.30;6.50;;;;;;;14.51;90.32;100400.13;105849;1263;102342;-89
2023/09/21 01:01:03;;;;;;;10.70;6.70;;;;;;;14.49;90.59;100394.66;105878;1267;99213;-87
2023/09/21 01:03:52;;;;;;;9.80;7.00;;;;;;;14.48;90.85;100395.38;105834;1269;98952;-87
2023/09/21 01:06:42;;;;;;;13.60;6.50;;;;;;;14.45;90.73;100394.69;105758;1264;98776;-89
2023/09/21 01:09:28;;;;;;;11.00;6.20;;;;;;;14.42;90.80;100400.90;105752;1264;97899;-88
2023/09/21 01:12:14;;;;;;;10.70;6.60;;;;;;;14.39;90.80;100400.73;105849;1270;101492;-88
2023/09/21 01:15:11;;;;;;;8.00;6.10;;;;;;;14.37;90.67;100402.91;105778;1268;99360;-85
2023/09/21 01:17:57;;;;;;;9.30;6.90;;;;;;;14.36;90.72;100402.34;106021;1263;98331;-87
2023/09/21 01:20:44;;;;;;;14.00;6.20;;;;;;;14.33;90.93;100401.41;106052;1263;98061;-88
2023/09/21 01:23:35;;;;;;;12.10;6.40;;;;;;;14.31;90.88;100400.98;105992;1264;98402;-87
2023/09/21 01:26:20;;;;;;;11.10;5.80;;;;;;;14.30;90.90;100402.83;106004;1263;102153;-89
2023/09/21 01:29:06;;;;;;;9.00;6.00;;;;;;;14.29;91.20;100401.24;106058;1264;99294;-86
2023/09/21 01:31:56;;;;;;;7.80;5.50;;;;;;;14.30;91.14;100399.55;105950;1270;98592;-87
2023/09/21 01:34:46;;;;;;;11.30;6.20;;;;;;;14.30;91.21;100400.67;105775;1263;97976;-87
2023/09/21 01:37:32;;;;;;;10.10;6.30;;;;;;;14.29;91.36;100398.80;106037;1269;98406;-87
2023/09/21 01:40:19;;;;;;;13.20;6.90;;;;;;;14.29;91.47;100397.77;105938;1263;101560;-88
2023/09/21 01:43:10;;;;;;;9.90;5.80;;;;;;;14.28;91.52;100399.63;105748;1269;99151;-87
2023/09/21 01:45:56;;;;;;;11.60;6.50;;;;;;;14.28;91.76;100397.76;105820;1262;98086;-86
2023/09/21 01:48:42;;;;;;;8.10;5.90;;;;;;;14.28;91.79;100396.55;105718;1269;97900;-86
2023/09/21 01:51:28;;;;;;;10.20;6.50;;;;;;;14.28;91.91;100393.49;106013;1267;98529;-88
2023/09/21 01:54:13;;;;;;;9.50;6.50;;;;;;;14.27;91.99;100393.94;105917;1264;102369;-87
2023/09/21 01:56:59;;;;;;;11.50;5.80;;;;;;;14.27;91.80;100391.55;105968;1268;99206;-88
2023/09/21 01:59:45;;;;;;;9.90;6.70;;;;;;;14.26;91.90;100390.39;105616;1270;101590;-86
2023/09/21 02:02:31;;;;;;;10.50;7.00;;;;;;;14.25;92.24;100389.39;105905;1273;98687;-87
2023/09/21 02:05:16;;;;;;;11.40;6.60;;;;;;;14.26;92.26;100388.27;105844;1264;98502;-86
2023/09/21 02:08:07;;;;;;;15.30;7.90;;;;;;;14.23;92.18;100391.18;105912;1266;101767;-86
2023/09/21 02:10:53;;;;;;;13.10;8.00;;;;;;;14.20;92.37;100392.69;105915;1266;99192;-87
2023/09/21 02:13:40;;;;;;;17.70;7.90;;;;;;;14.16;91.95;100395.36;105856;1263;98537;-88
2023/09/21 02:16:26;;;;;;;14.70;6.80;;;;;;;14.13;92.04;100394.22;105730;1264;97984;-87
2023/09/21 02:19:12;;;;;;;11.60;7.10;;;;;;;14.10;91.79;100391.13;105900;1263;97926;-86
2023/09/21 02:21:58;;;;;;;10.10;6.90;;;;;;;14.07;91.88;100388.81;105913;1267;102118;-87
2023/09/21 02:24:44;;;;;;;14.90;8.00;;;;;;;14.05;91.93;100386.27;105716;1264;100119;-87
2023/09/21 02:27:33;;;;;;;11.50;7.40;;;;;;;14.04;92.65;100385.85;105681;1263;99072;-87
2023/09/21 02:30:21;;;;;;;10.30;7.10;;;;;;;14.03;92.46;100382.25;105765;1264;98084;-87
2023/09/21 02:33:08;;;;;;;12.00;7.10;;;;;;;14.01;92.47;100380.15;105824;1264;98506;-86
2023/09/21 02:35:53;;;;;;;11.30;7.60;;;;;;;14.00;92.76;100380.07;105889;1264;102485;-87
2023/09/21 02:38:39;;;;;;;10.70;6.90;;;;;;;13.99;92.51;100377.58;105911;1264;99212;-87
2023/09/21 02:41:26;;;;;;;9.80;7.30;;;;;;;13.98;92.93;100374.80;105942;1267;106305;-86
2023/09/21 02:44:13;;;;;;;11.20;8.00;;;;;;;13.97;92.96;100372.84;105823;1262;97946;-87
2023/09/21 02:46:59;;;;;;;14.60;8.20;;;;;;;13.96;93.09;100367.37;105841;1271;97978;-87
2023/09/21 02:49:45;;;;;;;14.70;7.70;;;;;;;13.98;93.13;100366.98;105723;1264;101458;-86
2023/09/21 02:52:32;;;;;;;11.20;7.40;;;;;;;13.97;93.35;100364.48;105950;1268;101525;-87
2023/09/21 02:55:20;;;;;;;11.90;7.90;;;;;;;13.98;93.49;100360.18;105824;1267;99339;-87
2023/09/21 02:58:12;;;;;;;10.50;6.80;;;;;;;13.98;93.80;100356.86;105915;1266;97916;-88
2023/09/21 03:01:07;;;;;;;12.60;7.80;;;;;;;13.99;93.77;100358.94;105917;1273;97987;-87
2023/09/21 03:03:55;;;;;;;13.20;7.00;;;;;;;13.99;93.75;100356.20;105935;1264;111736;-88
2023/09/21 03:06:42;;;;;;;13.10;8.00;;;;;;;13.99;93.53;100354.59;105891;1264;99235;-88
2023/09/21 03:09:29;;;;;;;11.20;7.70;;;;;;;13.99;93.74;100353.84;105699;1264;99114;-86
2023/09/21 03:12:15;;;;;;;9.80;6.90;;;;;;;13.99;93.76;100346.59;105822;1264;99375;-86
2023/09/21 03:15:00;;;;;;;11.50;8.10;;;;;;;13.99;93.85;100348.30;105830;1264;98403;-86
2023/09/21 03:17:52;;;;;;;10.50;7.40;;;;;;;13.99;93.85;100353.18;105871;1264;103890;-87
2023/09/21 03:20:38;;;;;;;11.40;7.10;;;;;;;13.99;93.94;100350.04;105817;1270;99283;-87
2023/09/21 03:23:26;;;;;;;12.90;7.30;;;;;;;14.00;94.04;100350.48;105826;1270;97970;-87
2023/09/21 03:26:15;;;;;;;10.30;7.40;;;;;;;14.00;94.24;100350.70;105930;1264;98883;-88
2023/09/21 03:29:03;;;;;;;9.40;7.40;;;;;;;13.98;94.41;100351.16;105729;1267;97890;-87
2023/09/21 03:31:49;;;;;;;10.80;7.40;;;;;;;13.96;94.46;100350.00;105760;1268;102806;-88
2023/09/21 03:34:36;;;;;;;11.10;7.50;;;;;;;13.94;94.47;100346.83;105955;1264;100637;-87
2023/09/21 03:37:22;;;;;;;8.20;7.00;;;;;;;13.93;94.50;100347.16;105819;1263;98675;-86
2023/09/21 03:40:10;;;;;;;7.60;6.50;;;;;;;13.92;94.58;100344.23;105792;1263;98535;-86
2023/09/21 03:42:56;;;;;;;10.70;8.00;;;;;;;13.91;94.47;100343.23;105817;1268;98088;-87
2023/09/21 03:45:44;;;;;;;11.50;8.30;;;;;;;13.90;94.37;100342.48;105835;1263;101448;-87
2023/09/21 03:48:35;;;;;;;;;;;;;;;13.89;94.62;100342.95;105774;1264;99891;-86
2023/09/21 03:51:21;;;;;;;12.20;8.70;;;;;;;13.87;94.82;100340.65;105857;1264;99206;-88
2023/09/21 03:54:07;;;;;;;13.80;9.00;;;;;;;13.85;95.05;100335.44;105818;1269;98059;-88
2023/09/21 03:56:53;;;;;;;14.20;8.40;;;;;;;13.85;94.92;100332.61;105713;1264;96047;-89
2023/09/21 03:59:39;;;;;;;12.60;8.90;;;;;;;13.85;95.43;100336.43;105822;1264;101358;-86
2023/09/21 04:02:26;;;;;;;11.70;8.40;;;;;;;13.82;95.64;100338.31;105779;1264;99865;-87
2023/09/21 04:05:15;;;;;;;12.80;8.30;;;;;;;13.79;95.71;100340.41;105936;1263;99491;-88
2023/09/21 04:08:02;;;;;;;10.90;8.90;;;;;;;13.80;95.81;100342.38;105613;1264;98038;-87
2023/09/21 04:10:48;;;;;;;11.50;8.70;;;;;;;13.79;95.89;100336.48;105869;1263;98514;-87
2023/09/21 04:13:34;;;;;;;10.70;7.60;;;;;;;13.79;95.76;100334.34;105800;1264;103261;-87
2023/09/21 04:16:20;;;;;;;12.60;8.50;;;;;;;13.79;95.61;100330.78;105729;1264;101156;-87
2023/09/21 04:19:10;;;;;;;11.50;9.10;;;;;;;13.78;95.75;100328.92;105699;1270;97901;-88
2023/09/21 04:21:55;;;;;;;13.80;9.30;;;;;;;13.76;95.64;100328.10;105863;1270;97819;-87
2023/09/21 04:24:42;;;;;;;10.50;8.90;;;;;;;13.77;95.99;100328.56;105886;1264;98053;-87
2023/09/21 04:27:28;;;;;;;12.00;9.10;;;;;;;13.78;96.17;100327.06;105804;1263;101369;-89
2023/09/21 04:30:19;;;;;;;14.10;10.60;;;;;;;13.78;96.14;100322.49;105843;1263;99176;-89
2023/09/21 04:33:05;;;;;;;14.40;10.50;;;;;;;13.78;96.12;100320.56;105881;1269;98594;-89
2023/09/21 04:35:52;;;;;;;15.60;10.90;;;;;;;13.77;96.09;100318.37;105785;1263;97878;-88
2023/09/21 04:38:38;;;;;;;14.60;10.10;;;;;;;13.76;96.21;100315.31;105845;1267;97853;-87
2023/09/21 04:41:25;;;;;;;13.60;11.10;;;;;;;13.75;96.60;100311.30;105903;1266;102205;-89
2023/09/21 04:44:10;;;;;;;14.50;10.20;;;;;;;13.76;96.57;100312.04;105788;1270;101379;-88
2023/09/21 04:46:56;;;;;;;15.10;11.60;;;;;;;13.76;97.02;100307.31;105737;1272;99100;-88
2023/09/21 04:49:42;;;;;;;15.40;11.10;;;;;;;13.79;96.95;100306.59;105751;1270;97945;-87
2023/09/21 04:52:34;;;;;;;14.00;11.20;;;;;;;13.79;96.99;100307.30;105845;1263;98399;-87
2023/09/21 04:55:21;;;;;;;13.30;10.70;;;;;;;13.77;97.37;100306.27;105717;1264;101423;-88
2023/09/21 04:58:06;;;;;;;15.40;11.30;;;;;;;13.77;97.69;100307.60;105781;1264;99870;-87
2023/09/21 05:00:52;;;;;;;12.30;10.20;;;;;;;13.77;97.80;100307.82;105886;1264;97905;-87
2023/09/21 05:03:38;;;;;;;13.40;11.10;;;;;;;13.77;97.92;100306.60;105874;1263;97963;-88
2023/09/21 05:06:24;;;;;;;15.80;10.90;;;;;;;13.78;98.05;100303.16;105862;1263;97955;-89
2023/09/21 05:09:10;;;;;;;13.70;11.50;;;;;;;13.78;98.41;100304.91;105897;1267;101757;-87
2023/09/21 05:11:57;;;;;;;17.30;12.00;;;;;;;13.80;98.31;100305.72;106003;1270;100333;-87
2023/09/21 05:14:43;;;;;;;14.00;10.80;;;;;;;13.79;98.74;100304.52;105756;1263;97925;-87
2023/09/21 05:17:30;;;;;;;17.20;11.50;;;;;;;13.80;98.76;100305.30;105923;1262;98015;-88
2023/09/21 05:20:16;;;;;;;21.40;12.40;;;;;;;13.83;99.03;100302.98;105670;1267;99692;-87
2023/09/21 05:23:04;;;;;;;17.70;11.60;;;;;;;13.86;99.21;100303.08;106212;1264;110070;-88
2023/09/21 05:25:50;;;;;;;16.80;11.50;;;;;;;13.86;99.26;100306.10;106394;1263;99275;-88
2023/09/21 05:28:36;;;;;;;12.20;10.70;;;;;;;13.87;99.43;100306.35;105955;1264;97966;-87
2023/09/21 05:31:22;;;;;;;14.20;12.00;;;;;;;13.90;99.82;100305.25;106137;1264;97901;-88
2023/09/21 05:34:08;;;;;;;16.20;10.90;;;;;;;13.92;99.93;100304.00;106168;1264;98460;-87
2023/09/21 05:36:54;;;;;;;15.20;11.10;;;;;;;13.95;100.00;100305.69;105988;1264;102131;-88
2023/09/21 05:39:40;;;;;;;14.20;11.90;;;;;;;13.98;100.00;100305.45;106209;1266;99202;-89
2023/09/21 05:42:26;;;;;;;17.50;11.80;;;;;;;14.03;100.00;100302.70;105833;1270;98015;-86
2023/09/21 05:45:11;;;;;;;18.90;11.80;;;;;;;14.08;100.00;100306.95;105790;1264;97984;-88
2023/09/21 05:47:57;;;;;;;15.50;12.40;;;;;;;14.13;100.00;100309.06;105885;1264;97965;-87
2023/09/21 05:50:43;;;;;;;16.20;12.30;;;;;;;14.19;100.00;100308.77;105973;1264;101531;-89
2023/09/21 05:53:30;;;;;;;14.90;12.40;;;;;;;14.25;100.00;100303.06;105771;1264;99171;-87
2023/09/21 05:56:18;;;;;;;15.10;11.80;;;;;;;14.31;100.00;100302.25;105714;1269;98447;-87
2023/09/21 05:59:04;;;;;;;16.00;11.10;;;;;;;14.37;100.00;100305.98;105761;1263;97873;-87
2023/09/21 06:01:50;;;;;;;16.40;11.80;;;;;;;14.46;100.00;100307.09;105880;1263;98413;-88
2023/09/21 06:04:36;;;;;;;14.00;11.70;;;;;;;14.53;100.00;100308.73;105766;1264;101471;-88
2023/09/21 06:07:29;;;;;;;16.50;11.70;;;;;;;14.62;100.00;100311.19;105886;1264;99302;-87
2023/09/21 06:10:15;;;;;;;16.30;11.50;;;;;;;14.71;100.00;100312.23;105811;1270;98948;-88
2023/09/21 06:13:05;;;;;;;16.30;11.90;;;;;;;14.80;100.00;100314.73;105698;1264;97789;-87
2023/09/21 06:15:52;;;;;;;17.00;12.40;;;;;;;14.89;100.00;100311.07;105642;1263;98375;-88
2023/09/21 06:18:39;;;;;;;15.30;11.40;;;;;;;14.98;100.00;100310.28;105780;1267;101772;-87
2023/09/21 06:21:26;;;;;;;18.70;12.60;;;;;;;15.07;100.00;100311.19;105850;1263;100576;-85
2023/09/21 06:24:12;;;;;;;13.00;10.50;;;;;;;15.19;100.00;100316.18;105703;1267;106790;-87
2023/09/21 06:26:58;;;;;;;13.50;11.50;;;;;;;15.28;100.00;100315.21;105988;1263;98077;-88
2023/09/21 06:29:45;;;;;;;17.90;10.90;;;;;;;15.38;100.00;100311.27;105789;1264;99257;-86
2023/09/21 06:32:30;;;;;;;16.80;11.10;;;;;;;15.50;100.00;100313.11;105552;1264;101431;-85
2023/09/21 06:35:16;;;;;;;12.90;10.50;;;;;;;15.60;100.00;100316.41;105873;1267;99852;-87
2023/09/21 06:38:04;;;;;;;13.40;11.20;;;;;;;15.70;100.00;100312.91;105843;1264;99108;-85
2023/09/21 06:40:50;;;;;;;11.80;10.30;;;;;;;15.81;100.00;100313.12;105471;1264;97899;-84
2023/09/21 06:43:37;;;;;;;13.70;10.20;;;;;;;15.91;100.00;100314.81;105665;1270;98395;-87
2023/09/21 06:46:24;;;;;;;14.10;9.40;;;;;;;16.02;100.00;100313.16;105845;1264;101954;-86
2023/09/21 06:49:10;;;;;;;11.60;9.70;;;;;;;16.12;100.00;100312.70;105650;1264;218086;-88
2023/09/21 06:51:59;;;;;;;16.80;11.00;;;;;;;16.23;100.00;100311.86;105855;1263;99085;-88
2023/09/21 06:54:45;;;;;;;10.90;9.30;;;;;;;16.37;100.00;100311.49;106066;1264;97982;-87
2023/09/21 06:57:34;;;;;;;17.70;10.10;;;;;;;16.48;100.00;100306.41;105839;1264;97937;-87
2023/09/21 07:00:20;;;;;;;12.40;8.70;;;;;;;16.61;100.00;100301.35;105952;1262;103737;-87
2023/09/21 07:03:07;;;;;;;13.00;8.50;;;;;;;16.74;100.00;100301.43;106184;1262;99868;-92
2023/09/21 07:05:55;;;;;;;13.80;9.40;;;;;;;16.86;100.00;100301.52;106359;1263;98035;-87
2023/09/21 07:08:41;;;;;;;12.00;8.30;;;;;;;16.99;100.00;100295.81;106314;1270;97957;-89
2023/09/21 07:11:27;;;;;;;11.70;8.30;;;;;;;17.10;100.00;100294.88;106438;1264;98494;-90
2023/09/21 07:14:20;;;;;;;14.90;7.70;;;;;;;17.22;100.00;100293.58;106324;1263;102052;-92
2023/09/21 07:17:08;;;;;;;14.00;8.50;;;;;;;17.35;100.00;100289.58;106041;1267;99185;-87
2023/09/21 07:19:54;;;;;;;13.20;8.50;;;;;;;17.46;100.00;100290.48;105998;1264;97972;-86
2023/09/21 07:22:40;;;;;;;10.40;7.50;;;;;;;17.59;100.00;100290.99;105858;1263;97997;-86
2023/09/21 07:25:38;;;;;;;13.10;7.40;;;;;;;17.72;100.00;100292.13;106790;1263;98480;-90
2023/09/21 07:28:24;;;;;;;11.40;6.10;;;;;;;17.84;100.00;100290.58;106301;1266;102526;-88
2023/09/21 07:31:10;;;;;;;10.30;6.70;;;;;;;17.96;100.00;100293.30;106350;1266;99190;-90
2023/09/21 07:33:58;;;;;;;10.70;6.50;;;;;;;18.06;100.00;100289.27;106014;1263;99263;-86
2023/09/21 07:36:46;;;;;;;10.60;6.80;;;;;;;18.18;100.00;100290.30;105780;1264;97917;-85
2023/09/21 07:39:33;;;;;;;10.30;6.10;;;;;;;18.28;100.00;100287.45;105778;1268;97977;-84
2023/09/21 07:42:19;;;;;;;10.20;6.20;;;;;;;18.38;100.00;100286.64;105919;1263;102730;-84
2023/09/21 07:45:06;;;;;;;10.80;6.40;;;;;;;18.50;100.00;100281.77;105889;1262;100391;-84
2023/09/21 07:47:54;;;;;;;10.00;5.90;;;;;;;18.62;100.00;100281.99;105563;1262;99236;-87
2023/09/21 07:50:40;;;;;;;10.40;5.70;;;;;;;18.75;99.98;100282.13;105912;1267;98106;-86
2023/09/21 07:53:27;;;;;;;7.40;5.90;;;;;;;18.86;99.84;100282.04;105706;1262;98094;-84
2023/09/21 07:56:13;;;;;;;11.00;5.50;;;;;;;18.97;99.59;100278.95;105770;1264;103705;-84
2023/09/21 07:58:59;;;;;;;12.10;5.50;;;;;;;19.09;99.04;100272.70;105833;1263;99284;-84
2023/09/21 08:01:46;;;;;;;8.60;5.40;;;;;;;19.20;98.80;100275.27;105853;1264;98001;-84
2023/09/21 08:04:32;;;;;;;6.40;5.10;;;;;;;19.34;98.66;100272.77;105945;1263;97886;-84
2023/09/21 08:07:23;;;;;;;8.30;4.90;;;;;;;19.47;98.33;100268.59;105650;1262;98513;-85
2023/09/21 08:10:10;;;;;;;15.40;5.00;;;;;;;19.59;97.40;100268.09;105613;1264;101437;-85
2023/09/21 08:12:56;;;;;;;11.50;4.40;;;;;;;19.70;96.83;100267.82;105610;1262;100293;-84
2023/09/21 08:15:43;;;;;;;8.70;5.20;;;;;;;19.83;96.44;100267.45;105779;1267;97980;-84
2023/09/21 08:18:29;;;;;;;5.60;4.40;;;;;;;19.97;95.73;100267.76;105744;1264;99244;-85
2023/09/21 08:21:16;;;;;;;6.70;4.20;;;;;;;20.10;94.64;100264.02;105910;1266;98428;-84
2023/09/21 08:24:02;;;;;;;8.40;4.30;;;;;;;20.21;94.31;100264.33;105749;1262;102284;-85
2023/09/21 08:26:48;;;;;;;11.30;4.50;;;;;;;20.33;94.20;100264.45;105885;1264;99187;-84
2023/09/21 08:29:34;;;;;;;12.10;4.30;;;;;;;20.43;94.37;100261.55;106324;1264;97848;-84
2023/09/21 08:32:19;;;;;;;6.20;3.70;;;;;;;20.53;94.40;100259.89;105803;1267;97982;-89
2023/09/21 08:35:07;;;;;;;5.70;3.80;;;;;;;20.62;93.20;100256.96;106146;1263;97860;-87
2023/09/21 08:40:59;;;;;;;5.20;3.30;;;;;;;20.86;91.78;100252.05;106149;1265;99201;-84
2023/09/21 08:43:45;;;;;;;8.00;2.90;;;;;;;20.99;91.73;100246.94;105807;1266;98461;-85
2023/09/21 08:46:32;;;;;;;6.40;3.30;;;;;;;21.12;90.48;100246.27;105901;1270;97989;-85
2023/09/21 08:49:19;;;;;;;5.40;3.20;;;;;;;21.24;89.97;100244.48;106135;1264;96422;-86
2023/09/21 08:52:09;;;;;;;4.60;3.30;;;;;;;21.35;88.90;100243.88;105763;1264;102551;-89
2023/09/21 08:54:56;;;;;;;8.40;3.70;;;;;;;21.47;88.09;100245.41;105818;1266;99325;-89
2023/09/21 08:57:41;;;;;;;6.40;2.90;;;;;;;21.57;87.51;100242.01;105844;1267;99075;-86
2023/09/21 09:00:29;;;;;;;6.10;3.00;;;;;;;21.67;87.07;100240.84;105662;1263;97980;-85
2023/09/21 09:03:19;;;;;;;6.60;3.30;;;;;;;21.77;87.21;100235.80;105570;1264;97974;-86
2023/09/21 09:06:05;;;;;;;5.50;2.70;;;;;;;21.89;86.36;100235.59;105814;1266;102102;-87
2023/09/21 09:08:51;;;;;;;6.20;3.00;;;;;;;21.99;86.09;100234.96;105729;1262;100210;-87
2023/09/21 09:11:40;;;;;;;4.80;2.80;;;;;;;22.08;85.29;100234.31;105650;1263;100154;-87
2023/09/21 09:14:25;;;;;;;6.00;2.70;;;;;;;22.16;84.81;100227.67;105784;1264;97987;-87
2023/09/21 09:17:15;;;;;;;3.80;2.60;;;;;;;22.28;83.99;100227.56;105704;1269;99676;-85
2023/09/21 09:20:03;;;;;;;3.10;2.40;;;;;;;22.39;83.41;100229.20;105524;1267;103273;-86
2023/09/21 09:22:51;;;;;;;5.60;3.00;;;;;;;22.50;83.15;100228.98;105602;1264;100765;-85
2023/09/21 09:25:37;;;;;;;3.90;2.50;;;;;;;22.61;83.11;100228.35;105435;1270;97873;-85
2023/09/21 09:28:23;;;;;;;7.20;2.80;;;;;;;22.70;82.50;100226.00;105595;1264;98031;-84
2023/09/21 09:31:11;;;;;;;4.60;2.60;;;;;;;22.80;82.09;100222.43;107183;1267;95534;-85
2023/09/21 09:33:57;;;;;;;4.50;2.30;;;;;;;22.89;82.30;100220.45;105463;1269;101430;-86
2023/09/21 09:36:50;;;;;;;8.60;2.50;;;;;;;22.96;81.54;100221.20;105845;1267;100536;-86
2023/09/21 09:39:36;;;;;;;6.10;2.70;;;;;;;23.06;81.60;100220.40;105709;1264;98685;-87
2023/09/21 09:42:23;;;;;;;4.00;2.40;;;;;;;23.18;80.97;100218.80;105559;1270;98038;-86
2023/09/21 09:45:18;;;;;;;6.60;2.40;;;;;;;23.28;80.57;100217.00;105780;1264;98108;-87
2023/09/21 09:48:11;;;;;;;2.30;2.00;;;;;;;23.39;79.90;100215.61;106079;1263;103591;-89
2023/09/21 09:51:03;;;;;;;3.60;2.60;;;;;;;23.49;79.72;100210.59;105882;1266;100587;-90
2023/09/21 09:53:52;;;;;;;2.90;1.90;;;;;;;23.60;79.01;100204.58;106310;1262;99059;-88
2023/09/21 09:56:41;;;;;;;4.80;2.40;;;;;;;23.70;77.84;100200.14;105765;1264;97887;-88
2023/09/21 09:59:28;;;;;;;6.00;2.30;;;;;;;23.80;77.34;100195.94;106351;1266;98004;-88
2023/09/21 10:02:18;;;;;;;2.60;1.70;;;;;;;23.90;77.15;100197.02;106548;1268;111349;-89
2023/09/21 10:05:06;;;;;;;4.70;2.20;;;;;;;23.95;76.23;100192.60;106316;1263;99190;-91
2023/09/21 10:07:57;;;;;;;3.90;2.40;;;;;;;24.02;75.67;100185.79;106213;1263;97985;-88
2023/09/21 10:10:51;;;;;;;3.40;2.00;;;;;;;24.11;75.00;100183.38;106329;1263;97905;-88
2023/09/21 10:13:53;;;;;;;4.10;2.40;;;;;;;24.20;74.29;100177.78;106713;1267;97903;-90
2023/09/21 10:16:48;;;;;;;1.80;1.40;;;;;;;24.30;73.16;100174.36;106285;1262;102828;-90
2023/09/21 10:19:38;;;;;;;4.80;1.80;;;;;;;24.34;72.24;100170.16;106414;1264;99307;-90
2023/09/21 10:25:58;;;;;;;6.40;1.70;;;;;;;24.48;71.71;100162.14;106429;1264;98866;-88
2023/09/21 10:28:48;;;;;;;5.50;2.10;;;;;;;24.56;71.30;100156.42;105666;1262;98374;-86
2023/09/21 10:31:54;;;;;;;4.10;1.50;;;;;;;24.63;70.96;100150.86;106232;1265;102881;-85
2023/09/21 10:34:48;;;;;;;2.60;1.50;;;;;;;24.66;70.99;100147.66;106155;1262;100367;-85
2023/09/21 10:37:34;;;;;;;5.70;2.30;;;;;;;24.73;70.78;100147.23;105746;1262;98005;-85
2023/09/21 10:40:25;;;;;;;5.20;1.80;;;;;;;24.77;69.95;100151.03;105732;1261;98057;-84
2023/09/21 10:43:36;;;;;;;5.00;2.20;;;;;;;24.84;69.32;100147.55;105876;1265;97973;-85
2023/09/21 10:46:26;;;;;;;2.80;2.10;;;;;;;24.92;69.00;100142.96;105729;1262;103138;-86
2023/09/21 10:49:14;;;;;;;2.40;1.90;;;;;;;24.99;68.44;100140.70;105988;1267;100677;-85
2023/09/21 10:52:02;;;;;;;3.40;1.70;;;;;;;25.07;68.45;100139.12;105997;1262;99445;-85
2023/09/21 10:54:48;;;;;;;5.30;1.70;;;;;;;25.13;68.13;100133.50;105986;1268;98062;-86
2023/09/21 10:57:35;;;;;;;4.60;1.50;;;;;;;25.18;67.65;100131.30;106108;1262;97889;-86
2023/09/21 11:00:21;;;;;;;5.50;1.70;;;;;;;25.25;66.76;100132.13;105832;1265;101572;-86
2023/09/21 11:03:10;;;;;;;2.90;1.70;;;;;;;25.32;66.14;100129.08;105617;1265;101621;-85
2023/09/21 11:05:57;;;;;;;3.10;1.50;;;;;;;25.37;65.98;100122.38;105623;1268;98009;-84
2023/09/21 11:08:44;;;;;;;3.30;1.50;;;;;;;25.42;65.53;100124.25;105771;1261;98090;-85
2023/09/21 11:11:30;;;;;;;4.10;1.40;;;;;;;25.48;65.05;100120.88;106894;1260;95821;-85
2023/09/21 11:14:15;;;;;;;4.00;1.40;;;;;;;25.51;64.34;100118.42;105823;1265;102847;-86
2023/09/21 11:17:01;;;;;;;3.00;1.90;;;;;;;25.55;64.28;100115.41;105755;1262;100440;-86
2023/09/21 11:19:49;;;;;;;3.50;1.50;;;;;;;25.57;64.19;100112.35;105650;1262;97967;-86
2023/09/21 11:22:35;;;;;;;3.10;1.60;;;;;;;25.62;63.71;100110.53;105474;1262;97971;-85
2023/09/21 11:25:22;;;;;;;3.30;1.80;;;;;;;25.66;63.79;100107.23;105808;1268;98486;-86
2023/09/21 11:28:08;;;;;;;4.70;1.50;;;;;;;25.72;63.69;100109.21;105720;1268;111975;-86
2023/09/21 11:30:56;;;;;;;5.50;1.70;;;;;;;25.75;63.55;100102.10;105860;1267;99329;-85
2023/09/21 11:33:42;;;;;;;1.50;1.40;;;;;;;25.78;63.17;100099.17;105911;1263;98480;-86
2023/09/21 11:36:27;;;;;;;2.50;1.60;;;;;;;25.82;62.91;100092.75;105815;1268;97993;-88
2023/09/21 11:39:57;;;;;;;5.40;1.80;;;;;;;25.88;62.46;100091.46;106817;1260;99669;-93
2023/09/21 11:42:44;;;;;;;2.70;1.60;;;;;;;25.95;61.65;100086.77;106032;1262;101516;-84
2023/09/21 11:45:34;;;;;;;3.00;1.40;;;;;;;26.00;61.94;100084.54;105954;1259;100815;-84
2023/09/21 11:48:21;;;;;;;3.80;1.50;;;;;;;26.05;62.41;100083.42;106152;1261;98472;-83
2023/09/21 11:51:07;;;;;;;6.30;2.10;;;;;;;26.09;61.85;100079.20;106342;1267;97968;-83
2023/09/21 11:53:53;;;;;;;3.30;1.80;;;;;;;26.15;61.63;100076.53;106384;1262;97882;-83
2023/09/21 11:56:42;;;;;;;5.20;1.90;;;;;;;26.18;61.00;100073.94;106261;1262;101358;-83
2023/09/21 11:59:27;;;;;;;2.60;1.70;;;;;;;26.23;60.74;100069.35;106302;1262;99079;-82
2023/09/21 12:02:14;;;;;;;3.40;1.70;;;;;;;26.28;59.71;100064.54;106283;1265;98106;-83
2023/09/21 12:05:00;;;;;;;2.10;1.60;;;;;;;26.32;59.49;100062.36;106554;1260;98059;-83
2023/09/21 12:07:45;;;;;;;2.20;1.70;;;;;;;26.37;60.30;100062.77;106332;1262;97958;-83
2023/09/21 12:10:31;;;;;;;5.50;2.50;;;;;;;26.43;60.02;100060.52;106290;1262;103025;-84
2023/09/21 12:13:18;;;;;;;5.80;2.20;;;;;;;26.47;59.40;100059.10;106389;1265;100387;-82
2023/09/21 12:16:06;;;;;;;3.50;2.20;;;;;;;26.51;58.99;100051.17;106204;1262;99943;-87
2023/09/21 12:18:52;;;;;;;3.10;1.70;;;;;;;26.55;58.75;100046.32;106046;1265;97980;-85
2023/09/21 12:21:38;;;;;;;6.70;1.50;;;;;;;26.58;58.78;100046.41;106008;1265;98377;-83
2023/09/21 12:24:29;;;;;;;4.00;2.00;;;;;;;26.61;59.02;100047.63;106049;1261;103227;-91
2023/09/21 12:27:14;;;;;;;4.90;1.80;;;;;;;26.65;58.95;100047.83;105766;1262;99333;-84
2023/09/21 12:30:00;;;;;;;2.60;1.60;;;;;;;26.70;58.53;100042.77;105969;1265;99414;-84
2023/09/21 12:32:46;;;;;;;3.00;1.50;;;;;;;26.75;58.45;100037.52;106663;1259;97884;-92
2023/09/21 12:35:37;;;;;;;7.50;1.80;;;;;;;26.80;58.04;100036.73;106471;1260;97964;-91
2023/09/21 12:38:30;;;;;;;3.40;1.40;;;;;;;26.82;57.95;100038.05;106631;1268;110961;-91
2023/09/21 12:41:19;;;;;;;4.20;1.30;;;;;;;26.84;58.34;100039.10;106476;1262;107843;-91
2023/09/21 12:44:06;;;;;;;3.60;1.70;;;;;;;26.87;58.44;100038.48;106348;1261;97966;-86
2023/09/21 12:46:52;;;;;;;2.20;1.70;;;;;;;26.90;57.62;100030.83;105685;1265;98007;-86